createdAt,value
2023-03-23T15:58:34.190Z,96892.00
2023-03-23T16:01:09.629Z,96884.00
2023-03-23T16:03:44.066Z,96879.00
2023-03-23T16:06:24.902Z,96880.00
2023-03-23T16:08:55.097Z,96876.00
2023-03-23T16:11:26.120Z,96877.00
2023-03-23T16:13:54.476Z,96874.00
2023-03-23T16:16:28.586Z,96881.00
2023-03-23T16:18:56.877Z,96890.00
2023-03-23T16:21:25.298Z,96894.00
2023-03-23T16:23:53.648Z,96894.00
2023-03-23T16:26:21.930Z,96898.00
2023-03-23T16:28:50.622Z,96900.00
2023-03-23T16:31:19.956Z,96898.00
2023-03-23T16:33:49.688Z,96893.00
2023-03-23T16:36:18.205Z,96901.00
2023-03-23T16:38:49.632Z,96899.00
2023-03-23T16:41:19.514Z,96905.00
2023-03-23T16:43:49.814Z,96898.00
2023-03-23T16:46:18.047Z,96910.00
2023-03-23T16:48:46.448Z,96899.00
2023-03-23T16:51:16.049Z,96902.00
2023-03-23T16:53:44.384Z,96910.00
2023-03-23T16:56:12.699Z,96917.00
2023-03-23T16:58:41.475Z,96911.00
2023-03-23T17:01:09.795Z,96911.00
2023-03-23T17:03:38.166Z,96925.00
2023-03-23T17:06:07.124Z,96915.00
2023-03-23T17:08:37.004Z,96918.00
2023-03-23T17:11:05.792Z,96914.00
2023-03-23T17:13:34.056Z,96904.00
2023-03-23T17:16:02.266Z,96914.00
2023-03-23T17:18:30.538Z,96905.00
2023-03-23T17:20:58.883Z,96891.00
2023-03-23T17:23:27.083Z,96892.00
2023-03-23T17:25:56.643Z,96882.00
2023-03-23T17:28:25.819Z,96891.00
2023-03-23T17:30:54.279Z,96889.00
2023-03-23T17:33:22.537Z,96885.00
2023-03-23T17:35:51.862Z,96896.00
2023-03-23T17:38:20.802Z,96888.00
2023-03-23T17:40:48.979Z,96885.00
2023-03-23T17:43:18.549Z,96888.00
2023-03-23T17:45:47.442Z,96877.00
2023-03-23T17:48:15.907Z,96880.00
2023-03-23T17:50:48.198Z,96872.00
2023-03-23T17:53:18.475Z,96872.00
2023-03-23T17:55:47.310Z,96868.00
2023-03-23T17:58:16.680Z,96867.00
2023-03-23T18:00:46.626Z,96883.00
2023-03-23T18:03:15.100Z,96875.00
2023-03-23T18:05:43.590Z,96871.00
2023-03-23T18:08:12.455Z,96871.00
2023-03-23T18:10:42.411Z,96868.00
2023-03-23T18:13:11.869Z,96861.00
2023-03-23T18:15:46.602Z,96871.00
2023-03-23T18:18:16.668Z,96864.00
2023-03-23T18:20:44.846Z,96873.00
2023-03-23T18:23:13.527Z,96861.00
2023-03-23T18:25:42.244Z,96866.00
2023-03-23T18:28:10.615Z,96861.00
2023-03-23T18:30:38.817Z,96861.00
2023-03-23T18:33:07.190Z,96853.00
2023-03-23T18:35:36.824Z,96858.00
2023-03-23T18:38:05.289Z,96861.00
2023-03-23T18:40:33.532Z,96865.00
2023-03-23T18:43:01.815Z,96856.00
2023-03-23T18:45:30.040Z,96845.00
2023-03-23T18:47:58.307Z,96853.00
2023-03-23T18:50:26.552Z,96856.00
2023-03-23T18:52:56.593Z,96863.00
2023-03-23T18:55:24.910Z,96865.00
2023-03-23T18:57:53.249Z,96859.00
2023-03-23T19:00:21.713Z,96865.00
2023-03-23T19:02:52.022Z,96868.00
2023-03-23T19:05:21.116Z,96866.00
2023-03-23T19:07:49.349Z,96879.00
2023-03-23T19:10:20.929Z,96868.00
2023-03-23T19:12:49.980Z,96873.00
2023-03-23T19:15:18.701Z,96871.00
2023-03-23T19:17:47.115Z,96880.00
2023-03-23T19:20:23.669Z,96865.00
2023-03-23T19:23:03.817Z,96872.00
2023-03-23T19:25:33.428Z,96875.00
2023-03-23T19:30:33.547Z,96868.00
2023-03-23T19:33:04.405Z,96875.00
2023-03-23T19:35:33.220Z,96870.00
2023-03-23T19:38:01.484Z,96858.00
2023-03-23T19:40:49.920Z,96861.00
2023-03-23T19:43:20.046Z,96865.00
2023-03-23T19:45:49.890Z,96869.00
2023-03-23T19:48:19.212Z,96854.00
2023-03-23T19:50:50.934Z,96867.00
2023-03-23T19:53:21.878Z,96868.00
2023-03-23T19:55:51.246Z,96876.00
2023-03-23T19:58:36.436Z,96873.00
2023-03-23T20:01:04.799Z,96869.00
2023-03-23T20:03:33.066Z,96857.00
2023-03-23T20:06:02.975Z,96870.00
2023-03-23T20:08:32.134Z,96862.00
2023-03-23T20:11:05.209Z,96855.00
2023-03-23T20:13:35.749Z,96857.00
2023-03-23T20:16:04.360Z,96850.00
2023-03-23T20:18:33.966Z,96850.00
2023-03-23T20:21:03.812Z,96856.00
2023-03-23T20:23:32.637Z,96860.00
2023-03-23T20:26:03.614Z,96851.00
2023-03-23T20:28:35.685Z,96855.00
2023-03-23T20:31:16.958Z,96851.00
2023-03-23T20:34:00.866Z,96864.00
2023-03-23T20:36:34.449Z,96854.00
2023-03-23T20:39:05.054Z,96870.00
2023-03-23T20:41:35.889Z,96856.00
2023-03-23T20:44:07.540Z,96864.00
2023-03-23T20:46:36.640Z,96866.00
2023-03-23T20:49:06.183Z,96865.00
2023-03-23T20:51:34.443Z,96859.00
2023-03-23T20:54:03.558Z,96868.00
2023-03-23T20:56:31.865Z,96869.00
2023-03-23T20:59:00.472Z,96866.00
2023-03-23T21:01:33.027Z,96858.00
2023-03-23T21:04:03.077Z,96864.00
2023-03-23T21:06:32.899Z,96865.00
2023-03-23T21:09:01.304Z,96857.00
2023-03-23T21:11:30.132Z,96859.00
2023-03-23T21:13:58.370Z,96859.00
2023-03-23T21:16:26.673Z,96861.00
2023-03-23T21:18:56.703Z,96853.00
2023-03-23T21:21:27.338Z,96851.00
2023-03-23T21:23:57.362Z,96857.00
2023-03-23T21:26:28.580Z,96849.00
2023-03-23T21:29:00.698Z,96849.00
2023-03-23T21:31:33.038Z,96850.00
2023-03-23T21:34:02.950Z,96843.00
2023-03-23T21:36:32.143Z,96850.00
2023-03-23T21:39:05.837Z,96840.00
2023-03-23T21:41:42.590Z,96845.00
2023-03-23T21:44:11.953Z,96849.00
2023-03-23T21:46:41.977Z,96832.00
2023-03-23T21:49:14.657Z,96840.00
2023-03-23T21:51:43.848Z,96842.00
2023-03-23T21:54:12.878Z,96845.00
2023-03-23T21:56:41.218Z,96835.00
2023-03-23T21:59:09.503Z,96833.00
2023-03-23T22:01:38.500Z,96839.00
2023-03-23T22:04:08.045Z,96843.00
2023-03-23T22:06:38.168Z,96828.00
2023-03-23T22:09:06.498Z,96826.00
2023-03-23T22:11:37.562Z,96825.00
2023-03-23T22:14:07.173Z,96822.00
2023-03-23T22:16:35.824Z,96830.00
2023-03-23T22:19:04.399Z,96822.00
2023-03-23T22:21:32.759Z,96837.00
2023-03-23T22:24:02.940Z,96825.00
2023-03-23T22:26:31.829Z,96835.00
2023-03-23T22:29:01.881Z,96829.00
2023-03-23T22:31:35.137Z,96808.00
2023-03-23T22:34:03.857Z,96813.00
2023-03-23T22:36:33.256Z,96813.00
2023-03-23T22:39:04.154Z,96801.00
2023-03-23T22:41:35.549Z,96798.00
2023-03-23T22:44:04.268Z,96790.00
2023-03-23T22:46:33.056Z,96792.00
2023-03-23T22:49:01.409Z,96786.00
2023-03-23T22:51:29.831Z,96787.00
2023-03-23T22:53:58.332Z,96784.00
2023-03-23T22:56:28.301Z,96785.00
2023-03-23T22:58:58.861Z,96771.00
2023-03-23T23:01:28.228Z,96764.00
2023-03-23T23:03:56.641Z,96760.00
2023-03-23T23:06:25.647Z,96770.00
2023-03-23T23:08:54.134Z,96758.00
2023-03-23T23:11:25.806Z,96752.00
2023-03-23T23:13:55.474Z,96751.00
2023-03-23T23:16:26.209Z,96747.00
2023-03-23T23:18:55.536Z,96745.00
2023-03-23T23:21:27.097Z,96733.00
2023-03-23T23:23:55.602Z,96744.00
2023-03-23T23:26:24.378Z,96746.00
2023-03-23T23:28:52.847Z,96731.00
2023-03-23T23:31:27.113Z,96733.00
2023-03-23T23:33:58.768Z,96732.00
2023-03-23T23:36:30.040Z,96720.00
2023-03-23T23:39:01.120Z,96720.00
2023-03-23T23:41:30.377Z,96714.00
2023-03-23T23:43:59.448Z,96717.00
2023-03-23T23:46:31.650Z,96722.00
2023-03-23T23:49:01.224Z,96712.00
2023-03-23T23:51:30.041Z,96722.00
2023-03-23T23:54:01.428Z,96710.00
2023-03-23T23:56:30.311Z,96722.00
2023-03-23T23:58:59.095Z,96721.00
